Time;durP1;ratioP1;P1;durP2;ratioP2;P2;SDS_P1;SDS_P2;PMS_P1;PMS_P2;Temp;Humidity;BMP_temperature;BMP_pressure;BME280_temperature;BME280_humidity;BME280_pressure;Samples;Min_cycle;Max_cycle;Signal;HPM_P1;HPM_P2
2023/11/02 00:00:31;;;;;;;5.80;2.45;;;;;;;;;;5019679;28;20021;-72
2023/11/02 00:02:57;;;;;;;9.55;3.03;;;;;;;;;;5054660;28;20043;-72
2023/11/02 00:05:50;;;;;;;5.20;2.50;;;;;;;;;;5053922;28;20021;-72
2023/11/02 00:08:16;;;;;;;6.75;2.47;;;;;;;;;;5054352;28;20390;-72
2023/11/02 00:10:41;;;;;;;3.97;2.47;;;;;;;;;;5036228;28;20017;-72
2023/11/02 00:13:17;;;;;;;6.38;3.08;;;;;;;;;;5036110;28;20032;-72
2023/11/02 00:15:44;;;;;;;5.53;2.33;;;;;;;;;;5016951;28;20021;-72
2023/11/02 00:18:10;;;;;;;4.32;2.50;;;;;;;;;;5015902;28;20021;-72
2023/11/02 00:20:37;;;;;;;3.97;2.28;;;;;;;;;;5038012;28;20131;-72
2023/11/02 00:23:03;;;;;;;4.57;2.40;;;;;;;;;;5036901;28;20033;-72
2023/11/02 00:25:38;;;;;;;3.20;2.20;;;;;;;;;;5035863;28;20033;-72
2023/11/02 00:28:03;;;;;;;5.97;2.65;;;;;;;;;;5054057;28;20029;-72
2023/11/02 00:30:28;;;;;;;7.68;2.42;;;;;;;;;;5054050;28;20386;-72
2023/11/02 00:32:54;;;;;;;2.42;1.80;;;;;;;;;;5053499;28;20028;-72
2023/11/02 00:35:20;;;;;;;4.97;2.65;;;;;;;;;;5035643;28;20029;-72
2023/11/02 00:37:45;;;;;;;4.38;2.50;;;;;;;;;;5054077;28;20017;-72
2023/11/02 00:40:12;;;;;;;5.07;2.42;;;;;;;;;;5035891;28;20452;-72
2023/11/02 00:42:37;;;;;;;6.40;2.70;;;;;;;;;;5036242;28;20028;-72
2023/11/02 00:45:03;;;;;;;9.00;2.60;;;;;;;;;;5035543;28;20027;-72
2023/11/02 00:47:28;;;;;;;7.82;3.33;;;;;;;;;;5053329;28;20104;-73
2023/11/02 00:49:57;;;;;;;4.63;2.35;;;;;;;;;;5036539;28;20029;-72
2023/11/02 00:52:22;;;;;;;4.55;2.92;;;;;;;;;;5015775;28;20059;-72
2023/11/02 00:55:00;;;;;;;5.72;2.47;;;;;;;;;;5026974;28;20424;-72
2023/11/02 00:57:31;;;;;;;;;;;;;;;;;;5033594;28;20037;-72
2023/11/02 00:59:57;;;;;;;4.22;3.10;;;;;;;;;;5019921;28;19970;-72
2023/11/02 01:02:22;;;;;;;4.55;2.00;;;;;;;;;;5017142;28;20029;-72
2023/11/02 01:04:54;;;;;;;7.13;2.55;;;;;;;;;;5033874;28;20033;-72
2023/11/02 01:07:19;;;;;;;4.47;2.35;;;;;;;;;;5036225;28;20024;-72
2023/11/02 01:09:49;;;;;;;2.78;1.95;;;;;;;;;;5035677;28;20078;-72
2023/11/02 01:12:26;;;;;;;4.80;2.20;;;;;;;;;;5053513;28;20024;-72
2023/11/02 01:14:52;;;;;;;4.53;2.38;;;;;;;;;;5035847;28;20029;-72
2023/11/02 01:17:36;;;;;;;5.18;2.20;;;;;;;;;;5016909;28;20498;-72
2023/11/02 01:20:08;;;;;;;6.50;2.75;;;;;;;;;;5032865;28;20021;-72
2023/11/02 01:22:50;;;;;;;4.35;2.20;;;;;;;;;;5044969;28;20035;-72
2023/11/02 01:25:16;;;;;;;3.92;2.58;;;;;;;;;;5004607;28;20037;-72
2023/11/02 01:27:41;;;;;;;5.65;2.42;;;;;;;;;;5015218;28;20106;-72
2023/11/02 01:30:30;;;;;;;6.28;2.28;;;;;;;;;;5024514;28;20032;-72
2023/11/02 01:32:55;;;;;;;4.50;2.40;;;;;;;;;;5050703;28;20032;-72
2023/11/02 01:35:39;;;;;;;3.15;2.15;;;;;;;;;;5034587;28;20017;-73
2023/11/02 01:38:08;;;;;;;3.88;2.38;;;;;;;;;;5052974;28;20021;-72
2023/11/02 01:40:59;;;;;;;2.97;2.08;;;;;;;;;;5035440;28;20028;-72
2023/11/02 01:43:33;;;;;;;5.25;2.45;;;;;;;;;;5034815;28;20047;-72
2023/11/02 01:46:01;;;;;;;6.55;2.17;;;;;;;;;;5035049;28;20025;-72
2023/11/02 01:48:34;;;;;;;4.57;2.00;;;;;;;;;;5034681;28;20556;-72
2023/11/02 01:51:08;;;;;;;3.88;2.58;;;;;;;;;;5033286;28;20438;-72
2023/11/02 01:53:50;;;;;;;4.18;2.55;;;;;;;;;;5016648;28;20026;-72
2023/11/02 01:56:57;;;;;;;7.45;2.50;;;;;;;;;;5031944;28;20033;-72
2023/11/02 01:59:43;;;;;;;4.47;2.47;;;;;;;;;;4953629;28;20432;-72
2023/11/02 02:02:20;;;;;;;7.85;2.50;;;;;;;;;;5010363;28;20032;-72
2023/11/02 02:05:24;;;;;;;4.55;2.13;;;;;;;;;;5034733;28;20025;-72
2023/11/02 02:08:43;;;;;;;5.32;2.20;;;;;;;;;;5016155;28;20055;-72
2023/11/02 02:11:15;;;;;;;3.20;2.15;;;;;;;;;;5052877;28;20501;-72
2023/11/02 02:13:51;;;;;;;9.85;2.15;;;;;;;;;;5034753;28;20083;-72
2023/11/02 02:16:28;;;;;;;6.07;2.20;;;;;;;;;;5035222;28;20383;-72
2023/11/02 02:19:05;;;;;;;3.05;2.13;;;;;;;;;;5052861;28;20528;-72
2023/11/02 02:21:45;;;;;;;7.00;2.10;;;;;;;;;;5053273;28;20029;-72
2023/11/02 02:24:31;;;;;;;3.55;2.60;;;;;;;;;;5056135;28;20482;-72
2023/11/02 02:27:13;;;;;;;3.53;2.10;;;;;;;;;;5038551;28;20064;-72
2023/11/02 02:30:06;;;;;;;4.45;2.22;;;;;;;;;;5056940;28;20025;-72
2023/11/02 02:32:56;;;;;;;6.28;2.75;;;;;;;;;;5056191;28;20021;-72
2023/11/02 02:35:23;;;;;;;;;;;;;;;;;;5039049;28;20017;-72
2023/11/02 02:38:05;;;;;;;5.90;2.58;;;;;;;;;;5038849;28;19912;-72
2023/11/02 02:40:33;;;;;;;5.07;2.47;;;;;;;;;;5038848;28;20021;-72
2023/11/02 02:43:01;;;;;;;7.18;2.70;;;;;;;;;;5055861;28;20036;-72
2023/11/02 02:45:28;;;;;;;4.15;2.30;;;;;;;;;;5038618;28;20028;-72
2023/11/02 02:47:54;;;;;;;7.38;2.75;;;;;;;;;;5056104;28;20456;-72
2023/11/02 02:50:20;;;;;;;4.38;2.90;;;;;;;;;;5056171;28;20041;-72
2023/11/02 02:52:48;;;;;;;6.20;2.65;;;;;;;;;;5038516;28;20080;-72
2023/11/02 02:55:15;;;;;;;3.97;2.63;;;;;;;;;;5037703;28;20029;-72
2023/11/02 02:57:46;;;;;;;6.00;3.30;;;;;;;;;;5038308;28;20091;-72
2023/11/02 03:00:14;;;;;;;5.43;2.75;;;;;;;;;;5038319;28;20029;-72
2023/11/02 03:02:41;;;;;;;9.60;2.90;;;;;;;;;;5037992;28;20029;-72
2023/11/02 03:05:10;;;;;;;4.20;2.95;;;;;;;;;;5037517;28;20025;-72
2023/11/02 03:07:36;;;;;;;4.22;2.45;;;;;;;;;;5055854;28;20490;-72
2023/11/02 03:10:03;;;;;;;6.38;2.85;;;;;;;;;;5038130;28;20029;-72
2023/11/02 03:12:35;;;;;;;4.07;2.72;;;;;;;;;;5037863;28;20028;-72
2023/11/02 03:15:05;;;;;;;5.07;3.00;;;;;;;;;;5037736;28;20059;-72
2023/11/02 03:17:50;;;;;;;5.22;3.00;;;;;;;;;;5037550;28;20036;-72
2023/11/02 03:20:16;;;;;;;9.30;3.22;;;;;;;;;;5055463;28;20028;-72
2023/11/02 03:22:42;;;;;;;5.22;3.03;;;;;;;;;;5038119;28;20033;-72
2023/11/02 03:25:20;;;;;;;3.83;2.78;;;;;;;;;;5054866;28;20025;-72
2023/11/02 03:28:00;;;;;;;10.00;4.72;;;;;;;;;;5021032;28;20060;-72
2023/11/02 03:30:35;;;;;;;6.20;3.65;;;;;;;;;;5055363;28;20021;-72
2023/11/02 03:33:25;;;;;;;6.45;2.85;;;;;;;;;;5054867;28;20134;-72
2023/11/02 03:36:12;;;;;;;5.10;2.88;;;;;;;;;;5037807;28;20380;-72
2023/11/02 03:39:22;;;;;;;5.43;3.38;;;;;;;;;;5037045;28;20566;-72
2023/11/02 03:42:37;;;;;;;6.85;2.80;;;;;;;;;;5029511;28;20048;-72
2023/11/02 03:45:09;;;;;;;4.93;3.08;;;;;;;;;;5029680;28;20053;-72
2023/11/02 03:47:44;;;;;;;4.75;2.95;;;;;;;;;;5023551;28;20510;-72
2023/11/02 03:50:21;;;;;;;5.50;3.42;;;;;;;;;;5034675;28;20029;-72
2023/11/02 03:53:22;;;;;;;4.75;2.97;;;;;;;;;;5017635;28;20033;-72
2023/11/02 03:56:14;;;;;;;5.18;2.65;;;;;;;;;;4992107;28;20060;-72
2023/11/02 03:58:49;;;;;;;4.30;2.80;;;;;;;;;;5032838;28;20048;-72
2023/11/02 04:01:32;;;;;;;10.07;2.60;;;;;;;;;;5053936;28;20494;-72
2023/11/02 04:04:06;;;;;;;5.07;2.67;;;;;;;;;;5034792;28;20041;-72
2023/11/02 04:06:42;;;;;;;10.18;3.65;;;;;;;;;;5016924;28;20483;-72
2023/11/02 04:09:10;;;;;;;10.27;3.00;;;;;;;;;;5033220;28;20082;-72
2023/11/02 04:11:41;;;;;;;5.10;2.65;;;;;;;;;;5046614;28;20017;-72
2023/11/02 04:14:16;;;;;;;6.72;3.15;;;;;;;;;;5036453;28;20120;-72
2023/11/02 04:16:42;;;;;;;5.35;2.47;;;;;;;;;;5031904;28;20029;-72
2023/11/02 04:19:07;;;;;;;7.80;2.88;;;;;;;;;;5029266;28;20040;-72
2023/11/02 04:21:33;;;;;;;7.25;2.70;;;;;;;;;;5054053;28;20051;-72
2023/11/02 04:23:58;;;;;;;7.93;2.75;;;;;;;;;;5033388;28;20395;-72
2023/11/02 04:26:24;;;;;;;5.50;2.30;;;;;;;;;;5035678;28;20030;-72
2023/11/02 04:28:49;;;;;;;7.43;2.78;;;;;;;;;;5016327;28;20021;-72
2023/11/02 04:31:14;;;;;;;3.65;2.58;;;;;;;;;;5042767;28;20022;-72
2023/11/02 04:33:42;;;;;;;4.85;2.70;;;;;;;;;;5032834;28;20025;-71
2023/11/02 04:36:08;;;;;;;10.20;2.65;;;;;;;;;;5032385;28;20029;-72
2023/11/02 04:38:33;;;;;;;3.47;2.55;;;;;;;;;;5033989;28;20017;-72
2023/11/02 04:40:58;;;;;;;4.07;2.53;;;;;;;;;;5036081;28;20029;-72
2023/11/02 04:43:24;;;;;;;7.93;2.58;;;;;;;;;;5034065;28;20017;-72
2023/11/02 04:45:49;;;;;;;3.90;2.60;;;;;;;;;;5032919;28;20520;-72
2023/11/02 04:48:14;;;;;;;6.30;3.05;;;;;;;;;;5049005;28;20029;-72
2023/11/02 04:50:40;;;;;;;11.20;2.75;;;;;;;;;;5034379;28;20104;-72
2023/11/02 04:53:06;;;;;;;5.25;2.70;;;;;;;;;;5034770;28;20394;-72
2023/11/02 04:55:32;;;;;;;6.20;2.67;;;;;;;;;;5050127;28;20497;-72
2023/11/02 04:57:57;;;;;;;3.83;2.03;;;;;;;;;;5054204;28;20017;-72
2023/11/02 05:00:22;;;;;;;5.88;2.58;;;;;;;;;;5053883;28;20032;-72
2023/11/02 05:02:48;;;;;;;4.07;2.85;;;;;;;;;;5053241;28;20064;-71
2023/11/02 05:05:13;;;;;;;4.50;2.40;;;;;;;;;;5053124;28;20025;-71
2023/11/02 05:07:38;;;;;;;4.93;2.42;;;;;;;;;;5035671;28;20036;-71
2023/11/02 05:10:04;;;;;;;6.22;2.33;;;;;;;;;;5053349;28;20036;-72
2023/11/02 05:12:30;;;;;;;3.28;2.40;;;;;;;;;;5051126;28;20033;-72
2023/11/02 05:14:55;;;;;;;6.00;2.47;;;;;;;;;;5026334;28;20032;-72
2023/11/02 05:17:20;;;;;;;3.15;2.22;;;;;;;;;;5038011;28;20029;-69
2023/11/02 05:19:46;;;;;;;6.07;2.40;;;;;;;;;;5052997;28;20039;-72
2023/11/02 05:22:11;;;;;;;5.47;2.47;;;;;;;;;;5052959;28;20024;-72
2023/11/02 05:24:36;;;;;;;5.93;2.47;;;;;;;;;;5051331;28;20083;-69
2023/11/02 05:27:02;;;;;;;5.70;2.50;;;;;;;;;;5026866;28;20037;-72
2023/11/02 05:29:27;;;;;;;4.25;2.33;;;;;;;;;;5035390;28;20024;-72
2023/11/02 05:31:52;;;;;;;4.43;2.58;;;;;;;;;;5051696;28;20083;-71
2023/11/02 05:34:18;;;;;;;3.40;2.17;;;;;;;;;;5036325;28;20433;-72
2023/11/02 05:36:43;;;;;;;4.25;2.30;;;;;;;;;;5032727;28;20108;-72
2023/11/02 05:39:08;;;;;;;2.72;1.85;;;;;;;;;;5032979;28;20027;-69
2023/11/02 05:41:34;;;;;;;4.25;2.28;;;;;;;;;;5031846;28;20544;-72
2023/11/02 05:43:59;;;;;;;9.65;3.15;;;;;;;;;;5041590;28;20026;-72
2023/11/02 05:46:24;;;;;;;3.15;2.13;;;;;;;;;;5048426;28;20017;-72
2023/11/02 05:48:50;;;;;;;5.60;2.53;;;;;;;;;;5050406;28;20022;-71
2023/11/02 05:51:15;;;;;;;2.90;2.30;;;;;;;;;;5053102;28;20013;-72
2023/11/02 05:53:40;;;;;;;4.72;2.15;;;;;;;;;;5018654;28;20394;-72
2023/11/02 05:56:06;;;;;;;3.42;2.58;;;;;;;;;;5035075;28;20021;-72
2023/11/02 05:58:31;;;;;;;3.88;2.40;;;;;;;;;;5055997;28;20466;-72
2023/11/02 06:00:57;;;;;;;4.38;3.08;;;;;;;;;;5051731;28;20040;-72
2023/11/02 06:03:24;;;;;;;5.63;2.90;;;;;;;;;;5037008;28;20033;-72
2023/11/02 06:05:49;;;;;;;6.85;2.25;;;;;;;;;;5018548;28;20030;-72
2023/11/02 06:08:15;;;;;;;2.90;1.90;;;;;;;;;;5025255;28;20517;-72
2023/11/02 06:10:40;;;;;;;7.50;2.40;;;;;;;;;;5036840;28;20028;-72
2023/11/02 06:13:05;;;;;;;4.68;1.95;;;;;;;;;;5040163;28;20021;-72
2023/11/02 06:15:30;;;;;;;2.92;1.92;;;;;;;;;;5054406;28;20050;-72
2023/11/02 06:17:56;;;;;;;3.45;1.73;;;;;;;;;;5037948;28;20171;-72
2023/11/02 06:20:21;;;;;;;7.20;2.40;;;;;;;;;;5038590;28;20025;-72
2023/11/02 06:22:46;;;;;;;5.55;2.00;;;;;;;;;;5040384;28;20029;-72
2023/11/02 06:25:12;;;;;;;6.25;2.00;;;;;;;;;;5036029;28;20036;-72
2023/11/02 06:27:37;;;;;;;3.80;1.75;;;;;;;;;;5040676;28;20433;-72
2023/11/02 06:30:03;;;;;;;5.82;2.05;;;;;;;;;;5035217;28;20390;-72
2023/11/02 06:32:28;;;;;;;5.55;1.85;;;;;;;;;;5035825;28;20025;-72
2023/11/02 06:34:53;;;;;;;2.55;2.00;;;;;;;;;;5038216;28;20029;-72
2023/11/02 06:37:20;;;;;;;4.80;1.88;;;;;;;;;;5037841;28;20021;-72
2023/11/02 06:39:45;;;;;;;6.70;2.28;;;;;;;;;;5038702;28;20099;-72
2023/11/02 06:42:12;;;;;;;5.63;2.13;;;;;;;;;;5055903;28;20124;-72
2023/11/02 06:44:43;;;;;;;6.15;2.08;;;;;;;;;;5037173;28;20040;-72
2023/11/02 06:47:08;;;;;;;4.30;2.10;;;;;;;;;;5046364;28;20086;-72
2023/11/02 06:49:33;;;;;;;3.72;1.80;;;;;;;;;;5036009;28;20414;-72
2023/11/02 06:52:02;;;;;;;3.63;2.08;;;;;;;;;;5020496;28;20067;-72
2023/11/02 06:54:27;;;;;;;3.75;2.28;;;;;;;;;;5035360;28;20052;-72
2023/11/02 06:56:52;;;;;;;3.85;2.03;;;;;;;;;;5017918;28;20025;-72
2023/11/02 06:59:17;;;;;;;12.60;2.20;;;;;;;;;;5046417;28;20120;-72
2023/11/02 07:01:44;;;;;;;5.05;2.05;;;;;;;;;;5035628;28;20025;-72
2023/11/02 07:04:09;;;;;;;3.63;2.00;;;;;;;;;;5050606;28;20021;-72
2023/11/02 07:06:35;;;;;;;5.05;2.13;;;;;;;;;;5001667;28;20028;-71
2023/11/02 07:09:00;;;;;;;4.78;1.90;;;;;;;;;;5050752;28;20470;-72
2023/11/02 07:11:25;;;;;;;7.32;1.90;;;;;;;;;;5050316;28;20346;-70
2023/11/02 07:13:52;;;;;;;4.32;1.55;;;;;;;;;;5037649;28;20036;-71
2023/11/02 07:16:18;;;;;;;5.20;1.98;;;;;;;;;;5053049;28;20056;-72
2023/11/02 07:18:43;;;;;;;5.95;2.33;;;;;;;;;;5053260;28;20375;-72
2023/11/02 07:21:09;;;;;;;3.35;2.10;;;;;;;;;;5055060;28;20027;-72
2023/11/02 07:23:34;;;;;;;5.38;1.88;;;;;;;;;;5029206;28;20025;-72
2023/11/02 07:25:59;;;;;;;3.83;2.15;;;;;;;;;;5033761;28;20026;-72
2023/11/02 07:28:25;;;;;;;5.15;1.90;;;;;;;;;;5017575;28;20034;-70
2023/11/02 07:30:50;;;;;;;5.93;2.13;;;;;;;;;;5034261;28;20044;-72
2023/11/02 07:33:15;;;;;;;5.80;1.75;;;;;;;;;;5039140;28;20136;-72
2023/11/02 07:35:40;;;;;;;3.95;1.52;;;;;;;;;;5035948;28;20021;-72
2023/11/02 07:38:06;;;;;;;6.38;2.22;;;;;;;;;;5035008;28;20489;-72
2023/11/02 07:40:31;;;;;;;3.30;1.88;;;;;;;;;;5029833;28;20394;-72
2023/11/02 07:42:57;;;;;;;3.08;2.38;;;;;;;;;;5033883;28;20033;-72
2023/11/02 07:45:23;;;;;;;6.53;1.98;;;;;;;;;;5041642;28;20371;-72
2023/11/02 07:47:48;;;;;;;4.47;1.98;;;;;;;;;;5034118;28;20035;-72
2023/11/02 07:50:13;;;;;;;4.28;2.10;;;;;;;;;;5048160;28;20028;-72
2023/11/02 07:52:41;;;;;;;6.32;2.03;;;;;;;;;;5054847;28;20024;-72
2023/11/02 07:55:08;;;;;;;6.07;1.85;;;;;;;;;;5036820;28;20025;-72
2023/11/02 07:57:34;;;;;;;6.00;2.20;;;;;;;;;;5055095;28;20496;-72
2023/11/02 07:59:59;;;;;;;3.65;2.15;;;;;;;;;;5036999;28;20051;-72
2023/11/02 08:02:25;;;;;;;5.43;2.10;;;;;;;;;;5052900;28;20025;-72
2023/11/02 08:04:50;;;;;;;2.88;1.80;;;;;;;;;;5036758;28;20474;-71
2023/11/02 08:07:15;;;;;;;3.85;1.98;;;;;;;;;;5053720;28;20020;-72
2023/11/02 08:09:41;;;;;;;2.38;1.80;;;;;;;;;;5036574;28;20029;-72
2023/11/02 08:12:08;;;;;;;3.45;1.95;;;;;;;;;;5036040;28;20470;-72
2023/11/02 08:14:35;;;;;;;3.28;1.95;;;;;;;;;;5054497;28;20020;-72
2023/11/02 08:17:00;;;;;;;3.90;1.80;;;;;;;;;;5052892;28;20028;-72
2023/11/02 08:19:26;;;;;;;5.93;2.08;;;;;;;;;;5015705;28;20390;-72
2023/11/02 08:21:51;;;;;;;5.10;2.05;;;;;;;;;;5035005;28;20116;-72
2023/11/02 08:24:16;;;;;;;2.75;1.80;;;;;;;;;;5034177;28;20029;-72
2023/11/02 08:26:44;;;;;;;2.40;1.48;;;;;;;;;;5034010;28;20104;-72
2023/11/02 08:29:10;;;;;;;3.42;1.73;;;;;;;;;;5035031;28;20037;-72
2023/11/02 08:31:35;;;;;;;4.10;1.70;;;;;;;;;;5018884;28;20020;-72
2023/11/02 08:34:00;;;;;;;2.03;1.50;;;;;;;;;;5016606;28;20037;-72
2023/11/02 08:36:30;;;;;;;4.70;1.80;;;;;;;;;;5033947;28;20025;-72
2023/11/02 08:38:56;;;;;;;2.42;1.73;;;;;;;;;;5053194;28;20032;-72
2023/11/02 08:41:23;;;;;;;6.57;1.60;;;;;;;;;;5036547;28;20096;-72
2023/11/02 08:43:50;;;;;;;5.85;1.85;;;;;;;;;;5042745;28;20111;-72
2023/11/02 08:46:20;;;;;;;1.83;1.52;;;;;;;;;;5034024;28;20026;-72
2023/11/02 08:48:46;;;;;;;3.15;1.75;;;;;;;;;;5024185;28;20028;-72
2023/11/02 08:51:14;;;;;;;7.18;2.17;;;;;;;;;;5034331;28;20075;-72
2023/11/02 08:53:39;;;;;;;2.85;1.50;;;;;;;;;;5041002;28;20043;-72
2023/11/02 08:56:09;;;;;;;3.08;1.73;;;;;;;;;;5053660;28;20497;-73
2023/11/02 08:58:39;;;;;;;5.25;2.25;;;;;;;;;;5053422;28;20023;-72
2023/11/02 09:01:05;;;;;;;7.90;1.80;;;;;;;;;;5053977;28;20025;-72
2023/11/02 09:03:30;;;;;;;4.97;1.70;;;;;;;;;;5052692;28;20123;-73
2023/11/02 09:05:58;;;;;;;2.55;1.52;;;;;;;;;;5053238;28;20091;-72
2023/11/02 09:08:24;;;;;;;5.97;2.58;;;;;;;;;;5053270;28;20025;-73
2023/11/02 09:10:49;;;;;;;2.78;1.90;;;;;;;;;;5053242;28;20048;-72
2023/11/02 09:13:14;;;;;;;2.72;1.55;;;;;;;;;;5052380;28;20036;-72
2023/11/02 09:15:39;;;;;;;4.10;1.95;;;;;;;;;;5053245;28;20055;-72
2023/11/02 09:18:05;;;;;;;5.40;1.65;;;;;;;;;;5034985;28;20497;-72
2023/11/02 09:20:30;;;;;;;6.03;1.80;;;;;;;;;;5035431;28;20028;-72
2023/11/02 09:22:58;;;;;;;3.63;1.50;;;;;;;;;;5034914;28;20092;-72
2023/11/02 09:25:23;;;;;;;3.17;1.98;;;;;;;;;;5052565;28;20063;-72
2023/11/02 09:27:48;;;;;;;4.40;1.77;;;;;;;;;;5053131;28;20062;-72
2023/11/02 09:30:14;;;;;;;7.20;1.70;;;;;;;;;;5035165;28;20017;-72
2023/11/02 09:32:39;;;;;;;4.30;1.40;;;;;;;;;;5037455;28;20075;-72
2023/11/02 09:35:05;;;;;;;3.30;1.60;;;;;;;;;;5039330;28;20029;-72
2023/11/02 09:37:30;;;;;;;2.78;1.45;;;;;;;;;;5039047;28;20025;-71
2023/11/02 09:39:55;;;;;;;2.45;1.65;;;;;;;;;;5057129;28;20016;-72
2023/11/02 09:42:21;;;;;;;5.30;1.52;;;;;;;;;;5056715;28;20067;-72
2023/11/02 09:44:46;;;;;;;4.97;2.03;;;;;;;;;;5057004;28;20036;-72
2023/11/02 09:47:11;;;;;;;3.58;1.50;;;;;;;;;;5038267;28;20033;-72
2023/11/02 09:49:37;;;;;;;10.02;1.65;;;;;;;;;;5036417;28;20110;-71
2023/11/02 09:52:03;;;;;;;4.65;1.60;;;;;;;;;;5057153;28;20044;-72
2023/11/02 09:54:29;;;;;;;4.40;1.65;;;;;;;;;;5037095;28;20044;-71
2023/11/02 09:56:56;;;;;;;3.03;1.40;;;;;;;;;;5028846;28;20122;-72
2023/11/02 09:59:21;;;;;;;4.90;1.38;;;;;;;;;;5056688;28;20032;-71
2023/11/02 10:01:46;;;;;;;2.78;1.55;;;;;;;;;;5038358;28;20417;-71
2023/11/02 10:04:12;;;;;;;3.45;1.70;;;;;;;;;;5031601;28;20493;-71
2023/11/02 10:06:37;;;;;;;4.47;1.42;;;;;;;;;;5054263;28;20029;-71
2023/11/02 10:09:04;;;;;;;5.70;1.77;;;;;;;;;;5036708;28;20022;-72
2023/11/02 10:11:29;;;;;;;5.88;1.42;;;;;;;;;;5036757;28;20029;-72
2023/11/02 10:13:56;;;;;;;1.88;1.40;;;;;;;;;;5036736;28;20029;-72
2023/11/02 10:16:24;;;;;;;2.60;1.70;;;;;;;;;;5036596;28;20029;-71
2023/11/02 10:18:50;;;;;;;2.65;1.85;;;;;;;;;;5035207;28;20064;-72
2023/11/02 10:21:24;;;;;;;3.63;1.40;;;;;;;;;;5035611;28;20048;-76
2023/11/02 10:23:54;;;;;;;4.85;1.27;;;;;;;;;;5036758;28;20032;-72
2023/11/02 10:26:19;;;;;;;4.15;2.10;;;;;;;;;;5018655;28;20025;-72
2023/11/02 10:28:44;;;;;;;2.92;1.90;;;;;;;;;;5035419;28;20398;-72
2023/11/02 10:31:10;;;;;;;4.18;1.92;;;;;;;;;;5034655;28;20017;-72
2023/11/02 10:33:36;;;;;;;2.83;1.48;;;;;;;;;;5018725;28;20026;-71
2023/11/02 10:36:02;;;;;;;3.50;1.60;;;;;;;;;;5018994;28;20026;-71
2023/11/02 10:38:27;;;;;;;1.73;1.60;;;;;;;;;;5035671;28;20029;-71
2023/11/02 10:40:53;;;;;;;3.70;1.38;;;;;;;;;;5034926;28;20025;-71
2023/11/02 10:43:19;;;;;;;4.43;1.90;;;;;;;;;;5018164;28;20029;-71
2023/11/02 10:45:54;;;;;;;5.95;1.70;;;;;;;;;;5035938;28;20025;-71
2023/11/02 10:48:20;;;;;;;4.38;1.88;;;;;;;;;;5034380;28;20017;-71
2023/11/02 10:50:47;;;;;;;2.03;1.50;;;;;;;;;;5018339;28;20020;-71
2023/11/02 10:53:24;;;;;;;3.92;1.27;;;;;;;;;;5017775;28;20501;-71
2023/11/02 10:56:04;;;;;;;6.80;1.70;;;;;;;;;;5034402;28;20025;-71
2023/11/02 10:58:30;;;;;;;3.78;1.98;;;;;;;;;;5035810;28;20026;-72
2023/11/02 11:00:56;;;;;;;3.92;1.73;;;;;;;;;;5034389;28;20036;-71
2023/11/02 11:03:21;;;;;;;4.15;2.03;;;;;;;;;;5018045;28;20021;-71
2023/11/02 11:05:48;;;;;;;3.95;1.92;;;;;;;;;;5018148;28;20033;-71
2023/11/02 11:08:14;;;;;;;5.05;1.90;;;;;;;;;;5034498;28;20028;-71
2023/11/02 11:10:41;;;;;;;3.97;1.80;;;;;;;;;;5017667;28;20022;-71
2023/11/02 11:13:10;;;;;;;3.95;1.83;;;;;;;;;;5035188;28;20024;-71
2023/11/02 11:15:36;;;;;;;6.97;1.40;;;;;;;;;;5033693;28;20053;-71
2023/11/02 11:18:01;;;;;;;2.55;1.50;;;;;;;;;;5035521;28;20031;-71
2023/11/02 11:20:27;;;;;;;3.65;1.63;;;;;;;;;;5035396;28;20096;-71
2023/11/02 11:22:52;;;;;;;2.97;1.50;;;;;;;;;;5017532;28;20025;-71
2023/11/02 11:25:18;;;;;;;4.30;1.83;;;;;;;;;;5033792;28;20072;-71
2023/11/02 11:27:46;;;;;;;3.15;1.52;;;;;;;;;;5033719;28;20032;-71
2023/11/02 11:30:21;;;;;;;1.80;1.60;;;;;;;;;;5017338;28;20022;-71
2023/11/02 11:32:47;;;;;;;2.60;1.38;;;;;;;;;;5017590;28;20033;-71
2023/11/02 11:35:17;;;;;;;3.08;1.50;;;;;;;;;;5033848;28;20032;-71
2023/11/02 11:38:00;;;;;;;2.08;1.48;;;;;;;;;;5017418;28;20053;-71
2023/11/02 11:40:26;;;;;;;4.57;1.70;;;;;;;;;;5018671;28;20032;-71
2023/11/02 11:42:51;;;;;;;3.85;1.60;;;;;;;;;;5035097;28;20478;-71
2023/11/02 11:45:27;;;;;;;5.00;1.67;;;;;;;;;;5034807;28;20055;-71
2023/11/02 11:47:56;;;;;;;4.93;1.42;;;;;;;;;;5034963;28;20071;-71
2023/11/02 11:50:45;;;;;;;4.88;1.48;;;;;;;;;;5034396;28;20021;-71
2023/11/02 11:53:23;;;;;;;3.17;1.80;;;;;;;;;;5017376;28;20033;-71
2023/11/02 11:55:53;;;;;;;2.50;1.70;;;;;;;;;;5032612;28;20053;-71
2023/11/02 11:58:44;;;;;;;4.38;1.55;;;;;;;;;;5017297;28;20067;-71
2023/11/02 12:01:17;;;;;;;3.55;1.50;;;;;;;;;;5033697;28;20048;-71
2023/11/02 12:03:48;;;;;;;4.45;1.88;;;;;;;;;;5034994;28;20482;-71
2023/11/02 12:06:15;;;;;;;3.38;1.55;;;;;;;;;;5017184;28;20108;-71
2023/11/02 12:08:48;;;;;;;3.83;1.42;;;;;;;;;;5016605;28;20021;-71
2023/11/02 12:11:21;;;;;;;1.90;1.40;;;;;;;;;;5032823;28;20124;-71
2023/11/02 12:13:57;;;;;;;4.43;1.70;;;;;;;;;;5033588;28;20033;-71
2023/11/02 12:16:30;;;;;;;6.03;1.70;;;;;;;;;;5034079;28;20051;-71
2023/11/02 12:18:55;;;;;;;1.77;1.15;;;;;;;;;;5034716;28;20055;-71
2023/11/02 12:21:22;;;;;;;2.80;1.50;;;;;;;;;;5032481;28;20017;-71
2023/11/02 12:23:50;;;;;;;3.60;1.38;;;;;;;;;;5033568;28;20041;-71
2023/11/02 12:26:18;;;;;;;2.08;1.45;;;;;;;;;;5033824;28;20490;-71
2023/11/02 12:28:45;;;;;;;2.35;1.25;;;;;;;;;;5032717;28;20514;-71
2023/11/02 12:31:12;;;;;;;2.30;1.45;;;;;;;;;;5034223;28;20028;-71
2023/11/02 12:33:37;;;;;;;3.97;1.30;;;;;;;;;;5034774;28;20029;-72
2023/11/02 12:36:03;;;;;;;1.65;1.33;;;;;;;;;;5017310;28;20022;-71
2023/11/02 12:38:36;;;;;;;1.80;1.60;;;;;;;;;;5035347;28;20029;-71
2023/11/02 12:41:04;;;;;;;2.10;1.20;;;;;;;;;;5016466;28;20028;-71
2023/11/02 12:43:36;;;;;;;2.30;1.85;;;;;;;;;;5033845;28;20049;-71
2023/11/02 12:46:04;;;;;;;2.55;1.42;;;;;;;;;;5034327;28;20367;-71
2023/11/02 12:48:33;;;;;;;2.80;1.42;;;;;;;;;;5032759;28;20029;-72
2023/11/02 12:51:22;;;;;;;3.00;1.48;;;;;;;;;;5033184;28;20044;-71
2023/11/02 12:53:49;;;;;;;4.22;1.42;;;;;;;;;;5033634;28;20036;-72
2023/11/02 12:56:32;;;;;;;3.28;1.58;;;;;;;;;;5033768;28;20021;-72
2023/11/02 12:58:59;;;;;;;1.83;1.35;;;;;;;;;;5033259;28;20051;-72
2023/11/02 13:01:41;;;;;;;2.53;1.45;;;;;;;;;;5033575;28;20026;-71
2023/11/02 13:04:06;;;;;;;3.55;1.40;;;;;;;;;;5015864;28;20025;-72
2023/11/02 13:06:35;;;;;;;2.35;1.33;;;;;;;;;;5032267;28;20087;-72
2023/11/02 13:09:08;;;;;;;9.48;1.60;;;;;;;;;;5033901;28;20025;-71
2023/11/02 13:11:33;;;;;;;3.13;1.50;;;;;;;;;;5033504;28;20092;-71
2023/11/02 13:13:59;;;;;;;4.75;1.45;;;;;;;;;;5031788;28;20517;-72
2023/11/02 13:16:24;;;;;;;4.85;1.65;;;;;;;;;;5015899;28;20029;-71
2023/11/02 13:18:52;;;;;;;2.15;1.38;;;;;;;;;;5031764;28;20495;-71
2023/11/02 13:21:18;;;;;;;4.13;1.60;;;;;;;;;;5033519;28;20025;-72
2023/11/02 13:23:44;;;;;;;2.45;1.55;;;;;;;;;;5032997;28;20025;-72
2023/11/02 13:26:11;;;;;;;2.67;1.67;;;;;;;;;;5015491;28;20479;-71
2023/11/02 13:28:36;;;;;;;2.15;1.10;;;;;;;;;;5015646;28;20387;-72
2023/11/02 13:31:02;;;;;;;6.25;1.52;;;;;;;;;;5031996;28;20036;-72
2023/11/02 13:33:28;;;;;;;4.40;1.23;;;;;;;;;;5032750;28;20080;-72
2023/11/02 13:35:54;;;;;;;1.88;1.38;;;;;;;;;;5033437;28;20456;-72
2023/11/02 13:38:19;;;;;;;2.83;1.20;;;;;;;;;;5031851;28;20026;-71
2023/11/02 13:40:44;;;;;;;9.48;1.70;;;;;;;;;;5033241;28;20032;-72
2023/11/02 13:43:09;;;;;;;4.30;1.38;;;;;;;;;;5033016;28;20052;-72
2023/11/02 13:45:35;;;;;;;3.58;1.40;;;;;;;;;;5032814;28;20045;-72
2023/11/02 13:48:00;;;;;;;2.70;1.23;;;;;;;;;;5033219;28;20112;-72
2023/11/02 13:50:25;;;;;;;3.30;1.38;;;;;;;;;;5033054;28;20071;-72
2023/11/02 13:52:51;;;;;;;2.60;1.40;;;;;;;;;;5046898;28;20404;-70
2023/11/02 13:55:16;;;;;;;2.53;1.48;;;;;;;;;;5065444;28;20481;-69
2023/11/02 13:57:41;;;;;;;2.15;1.20;;;;;;;;;;5040349;28;20512;-69
2023/11/02 14:00:11;;;;;;;2.45;1.30;;;;;;;;;;5035204;28;20029;-69
2023/11/02 14:02:38;;;;;;;3.22;1.30;;;;;;;;;;5016056;28;20025;-70
2023/11/02 14:05:03;;;;;;;1.70;1.25;;;;;;;;;;4998336;28;20025;-69
2023/11/02 14:07:29;;;;;;;2.45;1.20;;;;;;;;;;5032417;28;20033;-72
2023/11/02 14:09:54;;;;;;;3.08;1.50;;;;;;;;;;5053136;28;20029;-72
2023/11/02 14:12:23;;;;;;;2.40;1.17;;;;;;;;;;5072810;28;20071;-72
2023/11/02 14:14:52;;;;;;;3.33;1.17;;;;;;;;;;5053155;28;20103;-72
2023/11/02 14:17:17;;;;;;;4.10;1.33;;;;;;;;;;5052712;28;20047;-72
2023/11/02 14:19:45;;;;;;;2.88;1.63;;;;;;;;;;5038595;28;20409;-72
2023/11/02 14:22:10;;;;;;;1.42;1.30;;;;;;;;;;5056553;28;20025;-72
2023/11/02 14:24:35;;;;;;;5.00;1.13;;;;;;;;;;5038425;28;20477;-71
2023/11/02 14:27:01;;;;;;;2.47;1.40;;;;;;;;;;5038653;28;20029;-72
2023/11/02 14:29:26;;;;;;;2.05;1.50;;;;;;;;;;5038726;28;20108;-72
2023/11/02 14:31:51;;;;;;;2.20;1.10;;;;;;;;;;5038832;28;20108;-72
2023/11/02 14:34:17;;;;;;;1.45;1.25;;;;;;;;;;5038505;28;20082;-72
2023/11/02 14:36:42;;;;;;;5.07;1.50;;;;;;;;;;5055925;28;20020;-72
2023/11/02 14:39:07;;;;;;;3.72;1.27;;;;;;;;;;5038616;28;20025;-72
2023/11/02 14:41:33;;;;;;;2.50;1.40;;;;;;;;;;5056044;28;20032;-71
2023/11/02 14:43:58;;;;;;;7.53;1.75;;;;;;;;;;5043889;28;20099;-72
2023/11/02 14:46:24;;;;;;;2.35;1.75;;;;;;;;;;5044523;28;20393;-72
2023/11/02 14:48:49;;;;;;;4.15;1.30;;;;;;;;;;5055884;28;20047;-72
2023/11/02 14:51:14;;;;;;;1.63;1.15;;;;;;;;;;5038268;28;20024;-72
2023/11/02 14:53:41;;;;;;;3.05;1.42;;;;;;;;;;5056241;28;20021;-71